Los Angeles City Businesses
STUDIO CITY

Jurisdiction: Los Angeles
Source: City of Los Angeles, Office of Finance

This dataset includes 509 thousand business entities registered with Los Angeles City, Office of Finance. Each business is registered with location account number, legal business name, doing business as (DBA) name, location, mailing address, industry code, business start date, etc.

STUDIO CITY · Search Result

Entity Name Office Address Start/End Date
Progress Parking Solutions Ll 11720 Ventura Blvd, Studio City, CA 91604-2615 2019-11-01
Tiffany and Rankin Investigations, Inc. 4544 Gentry Avenue, Studio City, CA 91607-4117 2019-10-01
Vehicle Registration Services · Michael Agatelov / Inna Zhivilova 11399 Ventura Blvd, Studio City, CA 91604-3138 2019-09-12
Soulutions Therapy · Peri Abel 12214 Riverside Drive, Studio City, CA 91607-3830 2019-09-11
Kozuch Productions Inc 4215 Mary Ellen Avenue Apartment #202, Studio City, CA 91604-1822 2019-09-05
Works Learning LLC 12837 Moorpark Street Unit #402, Studio City, CA 91604-1384 2019-09-01
Elite Kinetics LLC 11780 Moorpark Street Unit #e, Studio City, CA 91604-2124 2019-08-31
Philz Coffee Inc. 13005 Ventura Blvd, Studio City, CA 91604-2237 2019-08-29
Lay Bare Waxing Salon · Lay Bare Franchising LLC 12444 Ventura Blvd Suite #103, Studio City, CA 91604-2409 2019-08-22
Eminence Medical Management Solutions, Inc. 11239 Ventura Blvd Suite #221, Studio City, CA 91604-3167 2019-08-20
Elise Lopez 4275 1/2 Tujunga Avenue, Studio City, CA 91604-2745 2019-08-18
Natural Nails & Spa · Tinh Nguyen 11288 Ventura Blvd #b, Studio City, CA 91604-3149 2019-08-14
Via Studio City · Pur Whitsett LLC 4100 Whitsett Avenue, Studio City, CA 91604-2439 2019-08-14
La Havana Barbershop · Nelson Valladares 12457 Ventura Blvd Suite #208, Studio City, CA 91604-2411 2019-08-14
Studio Kay 11308 Ventura Blvd, Studio City, CA 91604-3137 2019-08-13
Stola · Andrea Tuch 3479 Berry Drive, Studio City, CA 91604-4153 2019-08-12
Eileen Wesson 11348 Dona Lola Drive, Studio City, CA 91604-4319 2019-08-08
Studio Nai · Jasmin Ovsepyan 11626 Ventura Blvd, Studio City, CA 91604-2613 2019-08-08
Maestro Costumer Cleaners LLC 11275 Ventura Blvd, Studio City, CA 91604-3136 2019-08-01
Hazy Brows & Lashes · Ashley Elizabeth Hayes 4383 Tujunga Avenue Suite #d, Studio City, CA 91604-2771 2019-08-01
Mod Luxe Inc 11855 Laurelwood Drive Apartment #1, Studio City, CA 91604-4931 2019-07-29
1907 L'ete · Parks Creative Corporation 3704 Sunswept Drive, Studio City, CA 91604-2326 2019-07-29
Gokou Vegetarian Ramen Shop · Gokoku Vegetarian Ramen Shop 4147 Lankershim Blvd, Studio City, CA 91602-2846 2019-07-29
Bc Film LLC 11649 Acama Street Apartment #103, Studio City, CA 91604-2960 2019-07-24
Bistrot Paris Inc. 12265 Ventura Blvd Suite #102, Studio City, CA 91604-2529 2019-07-22
Rept LLC 4646 Laurelgrove Avenue, Studio City, CA 91604-1226 2019-07-22
Mj Audio · M.j. Apparel 13050 Dickens Street, Studio City, CA 91604-2222 2019-07-22
Bun + Oven / Bun and Oven · Sogol Sue Taherinejad 3930 Laurel Canyon Blvd Unit #108, Studio City, CA 91604-3792 2019-07-16
Anna Kalachyan Art · Anna Kalachyan 11044 Acama Street Unit #210, Studio City, CA 91602-3094 2019-07-14
Wojciech Kielar 12801 Moorpark Street Unit #318, Studio City, CA 91604-4505 2019-07-13
Rocky Romero Inc 3940 Laurel Canyon Blvd Suite #436, Studio City, CA 91604-3709 2019-07-11
Happily After Birth · Veronica Chappel 12400 Ventura Blvd Unit #1031, Studio City, CA 91604-2406 2019-07-10
The Animus LLC 11444 Moorpark Street Unit #103, Studio City, CA 91602-2043 2019-07-09
Ericka Gruner 4101 Arch Drive Apartment #108, Studio City, CA 91604-3276 2019-07-08
Image + Sound · R. David and Maryann C. Martin 12129 Cantura Street, Studio City, CA 91604-2502 2019-07-05
Synthellec Music · Gulshad Shikhee Khan 4176 Arch Drive #207, Studio City, CA 91604-3206 2019-07-05
Khao Soi Thai · Northern Siam LLC 12215 Ventura Blvd #112, Studio City, CA 91604-2533 2019-07-01
Vsl Holdings LLC 11271 Ventura Blvd Suite #182, Studio City, CA 91604-3136 2019-07-01
Ame Apparel · Natalia Bondarenko 10975 Bluffside Drive Suite #1327, Studio City, CA 91604-4448 2019-07-01
Garnet Finance, Inc 12912 Woodbridge Street Apartment #102, Studio City, CA 91604-5054 2019-07-01
Hero Home Products, Inc. 11378 Brill Drive, Studio City, CA 91604-3103 2019-07-01
Gsm Consulting LLC 11764 Canton Place, Studio City, CA 91604-4165 2019-06-28
Iron Jaw Productions, Inc. 12504 Woodbridge Street Unit #101, Studio City, CA 91604-1552 2019-06-26
Jamba Juice #330 · Rpm Juice Inc 10955 Ventura Blvd, Studio City, CA 91604-3341 2019-06-26
I V Hospice Inc 10806 Ventura Blvd Suite #5, Studio City, CA 91604-3300 2019-06-24
Hsr Moorpark, LLC 12659 Moorpark Street, Studio City, CA 91604-1377 2019-06-23
Peonies Lashes, Peonies Lashes La, Peonies Brows · Peonies Beauty LLC 4054 Laurel Canyon Blvd, Studio City, CA 91604-2017 2019-06-19
Centegra Plus LLC 3749 Cahuenga Blvd, Studio City, CA 91604-3504 2019-06-18
Lawrence & Associates · Christian Tyler Lawrence 12355 Moorpark Street, Studio City, CA 91604-1234 2019-06-15
Atm Services LLC 4233 Camellia Avenue, Studio City, CA 91604-2937 2019-06-15
High Ridge Networks · Seth Cooperman 11271 Ventura Blvd #242, Studio City, CA 91604-3136 2019-06-12
Kenzie Burke Health 12916 Moorpark Street Apartment #103, Studio City, CA 91604-5067 2019-06-12
Big Strong Alice Productions, Inc. 11030 Moorpark Street Apartment #30, Studio City, CA 91602-2143 2019-06-12
Studio City Builders, Inc. 12920 Galewood Street, Studio City, CA 91604-4045 2019-06-11
Charles James Productions Inc 4121 Radford Avenue #115, Studio City, CA 91604-2176 2019-06-07
Sweetgreen La LLC 13003 Ventura Blvd, Studio City, CA 91604-2237 2019-06-03
Rolling Dough Enterprises, Humble Sandwich · Lawrence Rudolph 3447 Wrightview Drive, Studio City, CA 91604-3930 2019-06-01
Best Response Health Care LLC 12001 Ventura Place Suite #202, Studio City, CA 91604-2622 2019-06-01
Claire Collins Consulting LLC 4240 Fulton Avenue #304, Studio City, CA 91604-1806 2019-06-01
Emerald Bay Entertainment, LLC 12711 Ventura Blvd Suite #160, Studio City, CA 91604-2476 2019-06-01
Raindrop & Reiki By Michal · Reiki and Raindrop By Michal 4055 Lankershim Blvd Apartment #336, Studio City, CA 91604-3436 2019-06-01
Davinciart · Diego Corte 4350 Vantage Avenue #105, Studio City, CA 91604-1791 2019-06-01
Fronen Consultants · Fronen Construction Inc 12400 Ventura Blvd #336, Studio City, CA 91604-2406 2019-05-31
Beignet Box · Sugar Shack Holdings LLC 4461 Tujunga Avenue #102, Studio City, CA 91602-2023 2019-05-31
Fresh and Meaty Burgers Studio City Inc 4350 Laurel Canyon Blvd, Studio City, CA 91604-1709 2019-05-31
Sad Bridesmaid LLC 12400 Ventura Blvd #323, Studio City, CA 91604-2406 2019-05-30
J. Edward Group · The J. Edward Group 4055 Lankershim Blvd Apartment #215, Studio City, CA 91604-3431 2019-05-28
Ups Store · Paal Inc 12348 Ventura Blvd, Studio City, CA 91604-2508 2019-05-24
7 Eleven Store 17702d · Ashfak Ahmed 11401 Ventura Blvd, Studio City, CA 91604-3143 2019-05-23
Krystal Ray Torres 11908 Ventura Blvd, Studio City, CA 91604-2643 2019-05-22
Tribal Alliance · Lida Ebrahimi Pour 11837 Laurelwood Drive #19, Studio City, CA 91604-3746 2019-05-21
Green Milieu Building & Design Inc 4167 Klump Avenue, Studio City, CA 91602-3313 2019-05-21
Steele Projects · Steele Architectural Corporation 4440 Bellingham Avenue, Studio City, CA 91604-1201 2019-05-20
John Xavier Design Studio · John Mchenry 4335 Vineland Avenue Apartment #115, Studio City, CA 91602-2187 2019-05-20
Gelato Bar · Gceren, Inc. 4342 1/2 Tujunga Avenue, Studio City, CA 91604-2751 2019-05-20
Rich Girls · Marteekia Sweats 4055 Lankershim Blvd Apartment #408, Studio City, CA 91604-3438 2019-05-20
317 Bar Inc 11925 Ventura Blvd, Studio City, CA 91604-2607 2019-05-15
Dentists of Studio City · Hanna and Jefferson Dental Corporation 12050 Ventura Blvd Suite #c101, Studio City, CA 91604-2639 2019-05-14
Onyx Gamewear LLC 4150 Saint Clair Avenue, Studio City, CA 91604-1607 2019-05-13
Benjamin Rausch 4170 Fair Avenue Unit #203, Studio City, CA 91602-3341 2019-05-13
Dudley7 Remi Inc 3739 Wrightwood Drive, Studio City, CA 91604-3949 2019-05-08
Ace of Greens Supply 10832 Alta View Drive, Studio City, CA 91604-3901 2019-05-03
Amanda Caitlyn Eberhardt 10944 Bluffside Drive Unit #219, Studio City, CA 91604-3364 2019-05-02
Ellen Faulk, Psy.d..mft · Ellen Faulk 12955 Ventura Blvd, Studio City, CA 91604-2235 2019-05-01
Yumtime Inc 4539 Morse Avenue, Studio City, CA 91604-1008 2019-05-01
Artigo Valet & Parking Services · Artur Petrosyan 11618 Ventura Blvd, Studio City, CA 91604-2613 2019-05-01
Van Dyke Yun Dermatology 12403 Ventura Court Suite #a, Studio City, CA 91604-2470 2019-05-01
Zappers · Robert Luna / Eben Mcgarr 11026 Ventura Blvd Unit #1, Studio City, CA 91604-3570 2019-04-25
Ponder & Play Inc. 12917 Dickens Street, Studio City, CA 91604-2221 2019-04-24
Rihaya Inc. 4236 Arch Drive Apartment #201, Studio City, CA 91604-3215 2019-04-18
Trisha Harrison Photography · Trisha Harrison 4519 Coldwater Canyon Avenue Unit #9, Studio City, CA 91604-1081 2019-04-18
Invertix Autohaus · Jason Theadato Yorker 11459 Ventura Blvd, Studio City, CA 91604-3143 2019-04-16
Awaken Biz La · Sara Marie Christina Lemon 12840 Moorpark Street Apartment #307, Studio City, CA 91604-1395 2019-04-15
Osteostrong Studio City Whitsett · Bone Good 12457 Ventura Blvd Suite #101, Studio City, CA 91604-2411 2019-04-15
I.d.d. Interior Design Directions · Victoria Dumond 12360 Ventura Blvd, Studio City, CA 91604-2508 2019-04-12
Maria Ludmila Scasserra 4283 Tujunga Avenue, Studio City, CA 91604-2745 2019-04-10
Bonijux · Hector Flores Acevedo 4103 Laurelgrove Avenue, Studio City, CA 91604-1622 2019-04-09
24 Hot Chicken & Waffle Bar · Park Hanson 2 Ventures LLC 12048 Ventura Blvd, Studio City, CA 91604-2608 2019-04-09
Gabutch & Associates 12104 Hoffman Street Apartment #105, Studio City, CA 91604-4750 2019-04-09
Blue Bottle Coffee Inc 11962 Ventura Blvd, Studio City, CA 91604-2606 2019-04-07